Time;durP1;ratioP1;P1;durP2;ratioP2;P2;SDS_P1;SDS_P2;PMS_P1;PMS_P2;Temp;Humidity;BMP_temperature;BMP_pressure;BME280_temperature;BME280_humidity;BME280_pressure;Samples;Min_cycle;Max_cycle;Signal;HPM_P1;HPM_P2
2023/05/21 00:00:14;;;;;;;9.20;6.13;;;;;;;12.81;100.00;101207.72;4945400;28;20051;-83
2023/05/21 00:02:40;;;;;;;6.80;6.20;;;;;;;12.70;100.00;101201.69;4948308;28;20074;-82
2023/05/21 00:05:10;;;;;;;6.22;5.63;;;;;;;12.62;100.00;101195.63;4929544;29;20043;-82
2023/05/21 00:07:37;;;;;;;6.85;6.15;;;;;;;12.58;100.00;101198.28;4936681;29;20057;-81
2023/05/21 00:10:03;;;;;;;6.40;5.80;;;;;;;12.48;100.00;101191.38;4954510;28;20431;-85
2023/05/21 00:12:31;;;;;;;7.55;5.57;;;;;;;12.41;100.00;101189.66;4943390;29;20479;-83
2023/05/21 00:14:58;;;;;;;6.88;5.55;;;;;;;12.36;100.00;101189.72;4930988;29;20444;-85
2023/05/21 00:17:25;;;;;;;7.65;6.15;;;;;;;12.31;100.00;101188.03;4943581;28;20551;-85
2023/05/21 00:19:52;;;;;;;8.63;6.45;;;;;;;12.26;100.00;101180.16;4954172;28;20067;-83
2023/05/21 00:22:18;;;;;;;6.43;5.78;;;;;;;12.23;100.00;101177.56;4936530;29;20250;-82
2023/05/21 00:24:45;;;;;;;7.47;6.78;;;;;;;12.19;100.00;101176.72;4940094;29;20055;-82
2023/05/21 00:27:14;;;;;;;6.53;5.90;;;;;;;12.17;100.00;101172.38;4943475;29;20048;-83
2023/05/21 00:29:42;;;;;;;9.07;6.22;;;;;;;12.12;100.00;101171.53;4927454;29;20150;-87
2023/05/21 00:32:09;;;;;;;9.50;6.22;;;;;;;12.10;100.00;101168.03;4941653;29;20039;-82
2023/05/21 00:34:36;;;;;;;7.63;6.35;;;;;;;12.06;100.00;101173.31;4930414;29;20130;-83
2023/05/21 00:37:02;;;;;;;9.10;5.65;;;;;;;12.04;100.00;101169.81;4939080;28;20047;-90
2023/05/21 00:39:29;;;;;;;8.20;5.47;;;;;;;12.04;100.00;101168.94;4947234;28;20050;-83
2023/05/21 00:41:56;;;;;;;6.90;6.20;;;;;;;12.02;100.00;101163.72;4940018;29;20040;-82
2023/05/21 00:44:24;;;;;;;7.50;6.57;;;;;;;12.00;100.00;101160.22;4942383;29;20488;-83
2023/05/21 00:46:53;;;;;;;6.10;5.60;;;;;;;12.02;100.00;101161.09;4948005;29;20041;-83
2023/05/21 00:49:23;;;;;;;7.18;6.47;;;;;;;12.03;100.00;101154.97;4943777;29;20443;-82
2023/05/21 00:51:50;;;;;;;5.97;5.47;;;;;;;12.03;100.00;101149.72;4939592;29;20047;-83
2023/05/21 00:54:17;;;;;;;6.28;5.68;;;;;;;12.04;100.00;101156.69;4948447;29;20039;-86
2023/05/21 00:56:43;;;;;;;6.55;5.85;;;;;;;12.04;100.00;101153.19;4946704;29;20094;-86
2023/05/21 00:59:10;;;;;;;6.47;5.38;;;;;;;12.04;100.00;101148.81;4951179;29;20118;-83
2023/05/21 01:01:36;;;;;;;6.68;6.07;;;;;;;12.03;100.00;101149.72;4924600;29;20047;-81
2023/05/21 01:04:03;;;;;;;10.88;6.38;;;;;;;12.05;100.00;101150.56;4932299;29;20043;-84
2023/05/21 01:06:33;;;;;;;8.05;6.15;;;;;;;12.05;100.00;101147.06;4947935;29;20043;-87
2023/05/21 01:09:03;;;;;;;6.00;5.40;;;;;;;12.04;100.00;101145.34;4941910;29;20130;-83
2023/05/21 01:11:39;;;;;;;6.75;6.05;;;;;;;12.00;100.00;101144.47;4947179;29;20047;-85
2023/05/21 01:14:08;;;;;;;10.05;6.22;;;;;;;12.00;100.00;101146.25;4945902;28;20115;-85
2023/05/21 01:16:37;;;;;;;7.97;6.65;;;;;;;11.98;100.00;101148.00;4946318;29;20130;-82
2023/05/21 01:19:05;;;;;;;7.15;6.45;;;;;;;11.99;100.00;101144.50;4940351;29;20067;-81
2023/05/21 01:21:37;;;;;;;9.07;5.63;;;;;;;11.96;100.00;101134.88;4941021;29;20043;-85
2023/05/21 01:24:07;;;;;;;6.32;5.70;;;;;;;11.95;100.00;101137.50;4935362;29;20114;-81
2023/05/21 01:26:37;;;;;;;6.70;6.00;;;;;;;11.94;100.00;101143.63;4946329;29;20118;-81
2023/05/21 01:29:11;;;;;;;7.93;5.88;;;;;;;11.92;100.00;101144.50;4950599;29;20051;-83
2023/05/21 01:32:03;;;;;;;7.63;5.57;;;;;;;11.92;100.00;101141.00;4943750;29;20155;-80
2023/05/21 01:34:45;;;;;;;10.63;6.43;;;;;;;11.90;100.00;101138.41;4943048;29;20055;-85
2023/05/21 01:37:30;;;;;;;7.65;5.90;;;;;;;11.88;100.00;101140.16;4936819;29;20039;-81
2023/05/21 01:40:05;;;;;;;9.65;6.15;;;;;;;11.86;100.00;101138.41;4945861;29;20039;-83
2023/05/21 01:42:34;;;;;;;7.90;5.93;;;;;;;11.81;100.00;101134.94;4946908;29;20502;-83
2023/05/21 01:45:05;;;;;;;9.43;5.97;;;;;;;11.75;100.00;101141.13;4946850;29;20035;-84
2023/05/21 01:47:32;;;;;;;8.95;6.45;;;;;;;11.68;100.00;101132.41;4960871;28;20075;-86
2023/05/21 01:50:00;;;;;;;6.18;5.65;;;;;;;11.64;100.00;101135.06;4935542;29;20098;-86
2023/05/21 01:52:27;;;;;;;5.95;5.07;;;;;;;11.61;100.00;101127.22;4948462;29;20043;-81
2023/05/21 01:54:54;;;;;;;7.07;6.10;;;;;;;11.57;100.00;101129.84;4934355;29;20047;-83
2023/05/21 01:57:21;;;;;;;6.13;5.45;;;;;;;11.55;100.00;101126.38;4949896;29;20043;-83
2023/05/21 01:59:47;;;;;;;5.25;4.78;;;;;;;11.50;100.00;101125.53;4958155;28;20484;-81
2023/05/21 02:02:14;;;;;;;7.25;5.50;;;;;;;11.45;100.00;101129.06;4941725;29;20047;-83
2023/05/21 02:04:41;;;;;;;6.78;5.95;;;;;;;11.40;100.00;101132.53;4938115;29;20122;-82
2023/05/21 02:07:09;;;;;;;8.73;5.70;;;;;;;11.36;100.00;101130.81;4950453;29;20050;-83
2023/05/21 02:09:35;;;;;;;7.55;5.63;;;;;;;11.34;100.00;101135.22;4946722;29;20127;-82
2023/05/21 02:12:03;;;;;;;6.53;5.93;;;;;;;11.34;100.00;101134.31;4952339;29;20047;-81
2023/05/21 02:14:29;;;;;;;7.68;6.00;;;;;;;11.31;100.00;101129.13;4946150;28;20495;-79
2023/05/21 02:16:56;;;;;;;6.88;6.15;;;;;;;11.29;100.00;101131.75;4960414;28;20087;-82
2023/05/21 02:19:23;;;;;;;6.85;6.15;;;;;;;11.31;100.00;101121.25;4943398;29;20062;-83
2023/05/21 02:21:49;;;;;;;5.78;5.22;;;;;;;11.32;100.00;101120.38;4931045;29;20047;-85
2023/05/21 02:24:16;;;;;;;9.55;5.97;;;;;;;11.34;100.00;101118.59;4946371;29;20074;-83
2023/05/21 02:26:43;;;;;;;6.65;6.05;;;;;;;11.33;100.00;101120.38;4938954;29;20530;-85
2023/05/21 02:29:09;;;;;;;8.93;6.45;;;;;;;11.28;100.00;101114.28;4946045;29;20051;-84
2023/05/21 02:31:36;;;;;;;5.88;5.28;;;;;;;11.23;100.00;101113.41;4931804;29;20051;-82
2023/05/21 02:34:02;;;;;;;7.10;5.82;;;;;;;11.22;100.00;101114.28;4947545;28;20051;-85
2023/05/21 02:36:32;;;;;;;9.18;4.97;;;;;;;11.21;100.00;101118.66;4942414;29;20047;-81
2023/05/21 02:39:00;;;;;;;11.63;6.32;;;;;;;11.22;100.00;101109.94;4937975;29;20107;-82
2023/05/21 02:41:27;;;;;;;8.90;5.45;;;;;;;11.21;100.00;101116.06;4946094;29;20134;-81
2023/05/21 02:43:53;;;;;;;9.18;6.50;;;;;;;11.21;100.00;101109.91;4938170;28;20051;-85
2023/05/21 02:46:19;;;;;;;8.02;6.15;;;;;;;11.21;100.00;101110.81;4948740;28;20063;-82
2023/05/21 02:48:46;;;;;;;7.80;5.78;;;;;;;11.21;100.00;101112.53;4946621;29;20043;-83
2023/05/21 02:51:12;;;;;;;9.55;6.78;;;;;;;11.19;100.00;101109.06;4946243;28;20062;-83
2023/05/21 02:53:39;;;;;;;8.45;7.00;;;;;;;11.19;100.00;101106.44;4949627;29;20036;-85
2023/05/21 02:56:05;;;;;;;9.35;6.70;;;;;;;11.18;100.00;101107.31;4944415;29;20053;-87
2023/05/21 02:58:32;;;;;;;8.80;6.55;;;;;;;11.13;100.00;101103.84;4941081;29;20543;-81
2023/05/21 03:00:58;;;;;;;7.72;6.82;;;;;;;11.08;100.00;101106.47;4946289;29;20040;-82
2023/05/21 03:03:25;;;;;;;8.48;6.00;;;;;;;11.06;100.00;101105.63;4948643;28;20601;-82
2023/05/21 03:05:51;;;;;;;6.50;5.88;;;;;;;11.06;100.00;101105.63;4940446;28;20039;-85
2023/05/21 03:08:18;;;;;;;8.10;5.82;;;;;;;11.04;100.00;101102.13;4943640;29;20031;-81
2023/05/21 03:10:44;;;;;;;10.25;6.68;;;;;;;11.03;100.00;101108.22;4940378;29;20110;-81
2023/05/21 03:13:11;;;;;;;8.48;6.13;;;;;;;11.03;100.00;101109.13;4942063;29;20035;-82
2023/05/21 03:15:37;;;;;;;8.43;6.65;;;;;;;10.99;100.00;101107.41;4939319;29;20044;-83
2023/05/21 03:18:04;;;;;;;7.30;6.38;;;;;;;10.99;100.00;101107.41;4922733;29;20059;-81
2023/05/21 03:20:31;;;;;;;8.63;5.43;;;;;;;10.98;100.00;101096.94;4947043;28;20502;-86
2023/05/21 03:22:59;;;;;;;6.97;5.32;;;;;;;10.93;100.00;101092.56;4944407;28;20133;-84
2023/05/21 03:25:25;;;;;;;9.93;6.47;;;;;;;10.92;100.00;101093.47;4928483;29;20112;-84
2023/05/21 03:27:52;;;;;;;6.95;5.70;;;;;;;10.91;100.00;101082.97;4925325;29;20053;-84
2023/05/21 03:30:18;;;;;;;7.47;6.35;;;;;;;10.88;100.00;101089.06;4939928;29;20075;-83
2023/05/21 03:32:48;;;;;;;6.00;5.13;;;;;;;10.87;100.00;101092.59;4937278;29;20411;-83
2023/05/21 03:35:15;;;;;;;5.93;5.18;;;;;;;10.86;100.00;101087.34;4947173;28;20062;-81
2023/05/21 03:37:41;;;;;;;6.07;5.45;;;;;;;10.85;100.00;101080.38;4943293;28;20467;-83
2023/05/21 03:40:09;;;;;;;8.63;6.38;;;;;;;10.87;100.00;101094.31;4943926;29;20812;-84
2023/05/21 03:42:36;;;;;;;4.53;4.15;;;;;;;10.86;100.00;101092.56;4942262;29;20050;-81
2023/05/21 03:45:03;;;;;;;6.13;4.55;;;;;;;10.86;100.00;101089.97;4929274;29;20047;-82
2023/05/21 03:47:30;;;;;;;7.30;5.05;;;;;;;10.86;100.00;101085.63;4923052;29;20055;-82
2023/05/21 03:49:56;;;;;;;7.45;5.75;;;;;;;10.89;100.00;101097.81;4941181;28;20043;-83
2023/05/21 03:52:23;;;;;;;5.13;4.20;;;;;;;10.89;100.00;101093.44;4940137;29;20051;-82
2023/05/21 03:54:49;;;;;;;6.30;4.47;;;;;;;10.90;100.00;101086.47;4945593;29;20042;-82
2023/05/21 03:57:15;;;;;;;6.63;5.28;;;;;;;10.92;100.00;101087.31;4955021;28;20070;-81
2023/05/21 03:59:42;;;;;;;8.15;5.22;;;;;;;10.92;100.00;101088.22;4938507;29;20780;-81
2023/05/21 04:02:08;;;;;;;6.15;5.03;;;;;;;10.95;100.00;101089.97;4944534;29;20057;-82
2023/05/21 04:04:35;;;;;;;7.43;5.05;;;;;;;10.95;100.00;101091.69;4946252;29;20038;-82
2023/05/21 04:07:03;;;;;;;6.90;5.45;;;;;;;10.98;100.00;101089.06;4941160;28;20490;-81
2023/05/21 04:09:30;;;;;;;9.20;5.25;;;;;;;10.99;100.00;101103.88;4926051;29;20048;-82
2023/05/21 04:11:56;;;;;;;7.38;5.28;;;;;;;10.99;100.00;101089.06;4944064;28;20052;-81
2023/05/21 04:14:23;;;;;;;8.18;5.82;;;;;;;11.01;100.00;101087.28;4941620;29;20063;-84
2023/05/21 04:16:49;;;;;;;7.78;5.55;;;;;;;11.04;100.00;101097.78;4947305;29;20450;-85
2023/05/21 04:19:16;;;;;;;7.65;5.88;;;;;;;11.07;100.00;101102.13;4931163;29;20051;-80
2023/05/21 04:21:43;;;;;;;7.47;6.18;;;;;;;11.11;100.00;101102.97;4943084;29;20057;-84
2023/05/21 04:24:10;;;;;;;8.70;6.68;;;;;;;11.16;100.00;101093.34;4946465;29;20063;-83
2023/05/21 04:26:37;;;;;;;8.35;6.22;;;;;;;11.21;100.00;101099.44;4947591;29;20035;-80
2023/05/21 04:29:03;;;;;;;7.35;5.45;;;;;;;11.29;100.00;101099.41;4939727;29;20047;-81
2023/05/21 04:31:33;;;;;;;11.05;6.25;;;;;;;11.38;100.00;101108.09;4940021;29;20146;-82
2023/05/21 04:33:59;;;;;;;8.07;6.00;;;;;;;11.48;100.00;101101.03;4940225;29;20051;-90
2023/05/21 04:36:27;;;;;;;6.90;5.65;;;;;;;11.56;100.00;101101.00;4949359;28;20076;-84
2023/05/21 04:38:54;;;;;;;5.90;5.15;;;;;;;11.64;100.00;101104.47;4942283;29;20052;-84
2023/05/21 04:41:21;;;;;;;6.60;5.45;;;;;;;11.73;100.00;101104.41;4940433;29;20058;-81
2023/05/21 04:43:48;;;;;;;9.45;6.15;;;;;;;11.79;100.00;101097.38;4938401;29;20044;-88
2023/05/21 04:46:14;;;;;;;7.28;5.60;;;;;;;11.84;100.00;101093.84;4943060;28;20044;-83
2023/05/21 04:48:41;;;;;;;5.70;4.70;;;;;;;11.94;100.00;101093.78;4930800;29;20394;-81
2023/05/21 04:51:07;;;;;;;7.00;5.47;;;;;;;12.04;100.00;101092.84;4955167;28;20046;-82
2023/05/21 04:53:34;;;;;;;6.13;5.05;;;;;;;12.10;100.00;101092.81;4942349;29;20051;-82
2023/05/21 04:56:02;;;;;;;8.13;6.03;;;;;;;12.17;100.00;101098.88;4945749;28;20031;-83
2023/05/21 04:58:31;;;;;;;10.95;5.72;;;;;;;12.23;100.00;101094.44;4944095;29;20206;-84
2023/05/21 05:01:01;;;;;;;7.95;5.55;;;;;;;12.28;100.00;101098.78;4948563;29;20047;-82
2023/05/21 05:03:28;;;;;;;8.07;5.75;;;;;;;12.32;100.00;101092.59;4941565;29;20141;-81
2023/05/21 05:05:55;;;;;;;6.82;5.55;;;;;;;12.41;100.00;101088.16;4924409;29;20067;-80
2023/05/21 05:08:21;;;;;;;7.32;5.32;;;;;;;12.47;100.00;101091.59;4930430;29;20055;-83
2023/05/21 05:10:48;;;;;;;7.57;6.38;;;;;;;12.48;100.00;101099.47;4934893;29;20036;-81
2023/05/21 05:13:14;;;;;;;7.15;5.45;;;;;;;12.51;100.00;101093.31;4941540;29;20040;-82
2023/05/21 05:15:41;;;;;;;6.05;5.43;;;;;;;12.52;100.00;101087.19;4944099;28;20040;-87
2023/05/21 05:18:08;;;;;;;7.22;5.35;;;;;;;12.56;100.00;101096.75;4945982;28;20051;-81
2023/05/21 05:20:34;;;;;;;9.77;6.22;;;;;;;12.64;100.00;101099.31;4941954;29;20110;-82
2023/05/21 05:23:00;;;;;;;7.93;5.55;;;;;;;12.69;100.00;101093.13;4946599;29;20043;-85
2023/05/21 05:25:27;;;;;;;7.38;5.65;;;;;;;12.73;100.00;101097.44;4947973;28;20039;-80
2023/05/21 05:27:54;;;;;;;8.45;4.97;;;;;;;12.81;100.00;101092.09;4938238;29;20039;-85
2023/05/21 05:30:22;;;;;;;7.72;5.80;;;;;;;12.84;100.00;101084.22;4945342;29;20054;-83
2023/05/21 05:32:49;;;;;;;7.25;5.82;;;;;;;12.89;100.00;101086.78;4945447;29;20125;-82
2023/05/21 05:35:15;;;;;;;15.05;6.00;;;;;;;12.93;100.00;101084.97;4942652;29;20190;-83
2023/05/21 05:37:41;;;;;;;8.98;6.65;;;;;;;13.02;100.00;101087.50;4936718;29;20058;-82
2023/05/21 05:40:08;;;;;;;8.88;6.53;;;;;;;13.14;100.00;101083.84;4949084;29;20043;-81
2023/05/21 05:42:35;;;;;;;10.18;5.68;;;;;;;13.19;100.00;101079.41;4940080;29;20527;-83
2023/05/21 05:45:01;;;;;;;7.47;6.22;;;;;;;13.26;100.00;101088.97;4948379;29;20110;-81
2023/05/21 05:47:28;;;;;;;10.00;7.53;;;;;;;13.35;100.00;101095.84;4945993;29;20046;-83
2023/05/21 05:49:54;;;;;;;12.23;6.97;;;;;;;13.35;100.00;101090.56;4947849;29;20039;-82
2023/05/21 05:52:21;;;;;;;10.88;6.97;;;;;;;13.37;100.00;101097.59;4953988;29;20059;-83
2023/05/21 05:54:47;;;;;;;9.52;6.68;;;;;;;13.42;100.00;101089.66;4943223;29;20110;-81
2023/05/21 05:57:14;;;;;;;9.93;6.28;;;;;;;13.49;100.00;101090.44;4941395;29;20660;-82
2023/05/21 05:59:40;;;;;;;10.63;7.65;;;;;;;13.59;100.00;101093.81;4952765;29;20039;-84
2023/05/21 06:02:07;;;;;;;7.78;6.97;;;;;;;13.65;100.00;101091.06;4951518;29;20560;-82
2023/05/21 06:04:33;;;;;;;9.90;7.80;;;;;;;13.75;99.65;101097.94;4953617;29;20044;-81
2023/05/21 06:06:59;;;;;;;14.50;8.05;;;;;;;13.82;99.23;101090.81;4958892;28;20050;-83
2023/05/21 06:09:26;;;;;;;12.05;8.15;;;;;;;13.80;99.67;101085.56;4951919;29;20043;-82
2023/05/21 06:11:52;;;;;;;10.13;7.05;;;;;;;13.81;99.65;101099.63;4954618;29;20043;-83
2023/05/21 06:14:19;;;;;;;12.60;7.55;;;;;;;13.85;100.00;101085.53;4968184;28;20058;-82
2023/05/21 06:16:45;;;;;;;11.52;8.32;;;;;;;13.91;99.55;101090.69;4945062;29;20107;-83
2023/05/21 06:19:12;;;;;;;10.48;7.78;;;;;;;13.96;99.32;101085.34;4933355;28;20091;-85
2023/05/21 06:21:38;;;;;;;9.77;8.80;;;;;;;14.04;99.04;101084.31;4958021;29;20051;-87
2023/05/21 06:24:05;;;;;;;9.27;8.23;;;;;;;14.09;98.60;101080.75;4954615;29;20039;-83
2023/05/21 06:26:33;;;;;;;10.25;8.55;;;;;;;14.14;99.07;101087.66;4954773;29;20416;-82
2023/05/21 06:28:59;;;;;;;9.63;8.23;;;;;;;14.18;98.63;101085.84;4961336;29;20067;-87
2023/05/21 06:31:26;;;;;;;10.32;9.05;;;;;;;14.29;98.41;101091.81;4959005;29;20039;-82
2023/05/21 06:33:53;;;;;;;12.13;8.40;;;;;;;14.39;97.45;101082.84;4940009;29;20450;-80
2023/05/21 06:36:20;;;;;;;12.60;9.82;;;;;;;14.48;96.93;101088.84;4939353;29;20051;-84
2023/05/21 06:38:46;;;;;;;10.50;8.32;;;;;;;14.55;96.85;101077.31;4948716;29;20031;-82
2023/05/21 06:41:13;;;;;;;11.48;9.02;;;;;;;14.63;96.31;101080.66;4942576;29;20055;-81
2023/05/21 06:43:43;;;;;;;15.85;10.82;;;;;;;14.70;95.96;101074.38;4964781;29;20043;-82
2023/05/21 06:46:28;;;;;;;9.15;8.18;;;;;;;14.80;95.78;101075.09;4965246;28;20043;-80
2023/05/21 06:49:23;;;;;;;11.68;10.32;;;;;;;14.98;95.26;101071.22;4949001;29;20055;-79
2023/05/21 06:51:51;;;;;;;9.32;8.05;;;;;;;15.17;93.87;101076.97;4941437;29;20110;-84
2023/05/21 06:54:17;;;;;;;12.65;8.48;;;;;;;15.24;93.16;101068.94;4948247;29;20043;-83
2023/05/21 06:56:44;;;;;;;14.88;9.48;;;;;;;15.20;93.17;101074.28;4956861;29;20102;-80
2023/05/21 06:59:11;;;;;;;12.13;8.82;;;;;;;15.19;93.43;101069.91;4952557;28;20118;-80
2023/05/21 07:01:41;;;;;;;14.98;9.68;;;;;;;15.26;93.36;101075.06;4936119;29;20462;-80
2023/05/21 07:04:08;;;;;;;11.38;9.23;;;;;;;15.38;93.54;101070.38;4946902;29;20043;-82
2023/05/21 07:06:34;;;;;;;12.05;9.70;;;;;;;15.48;92.37;101067.53;4942461;29;20058;-84
2023/05/21 07:09:01;;;;;;;12.10;10.38;;;;;;;15.52;92.23;101069.19;4945812;29;20070;-81
2023/05/21 07:11:28;;;;;;;12.93;10.32;;;;;;;15.59;92.13;101068.16;4946660;29;20106;-80
2023/05/21 07:13:59;;;;;;;13.30;10.77;;;;;;;15.67;91.79;101073.22;4945353;28;20051;-82
2023/05/21 07:16:27;;;;;;;14.43;10.57;;;;;;;15.78;91.06;101073.00;4951059;29;20211;-79
2023/05/21 07:18:54;;;;;;;12.32;10.55;;;;;;;15.75;91.34;101071.28;4940497;29;20048;-82
2023/05/21 07:21:20;;;;;;;12.68;10.10;;;;;;;15.81;91.21;101075.59;4943323;29;20043;-81
2023/05/21 07:23:47;;;;;;;12.25;10.93;;;;;;;15.87;90.72;101067.53;4942471;29;20040;-81
2023/05/21 07:26:15;;;;;;;13.88;10.07;;;;;;;16.01;90.83;101075.13;4939236;29;20040;-81
2023/05/21 07:28:42;;;;;;;14.88;11.73;;;;;;;16.14;90.24;101073.88;4947506;29;20499;-80
2023/05/21 07:31:10;;;;;;;13.10;11.25;;;;;;;16.25;89.36;101063.03;4951749;28;20431;-81
2023/05/21 07:33:38;;;;;;;13.60;10.00;;;;;;;16.47;89.02;101078.34;4925991;29;20071;-79
2023/05/21 07:36:07;;;;;;;12.60;11.15;;;;;;;16.67;88.37;101067.22;4939183;29;20107;-81
2023/05/21 07:38:34;;;;;;;14.32;10.05;;;;;;;16.84;87.81;101067.63;4924892;29;20091;-81
2023/05/21 07:41:02;;;;;;;14.43;10.98;;;;;;;17.06;87.02;101067.00;4944713;29;20749;-81
2023/05/21 07:43:29;;;;;;;15.90;12.50;;;;;;;17.25;85.96;101059.41;4932481;29;20476;-81
2023/05/21 07:45:55;;;;;;;15.13;11.40;;;;;;;17.32;85.84;101052.13;4953465;29;20142;-81
2023/05/21 07:48:22;;;;;;;13.90;11.52;;;;;;;17.44;85.30;101065.00;4946154;29;20051;-81
2023/05/21 07:50:51;;;;;;;14.15;12.63;;;;;;;17.59;84.35;101068.09;4958160;28;20046;-83
2023/05/21 07:53:18;;;;;;;16.38;13.48;;;;;;;17.56;83.68;101061.09;4943763;29;20126;-79
2023/05/21 07:55:47;;;;;;;15.07;13.25;;;;;;;17.51;84.14;101055.94;4940253;29;20341;-86
2023/05/21 07:58:18;;;;;;;14.80;12.48;;;;;;;17.66;83.22;101049.31;4937342;29;20044;-80
2023/05/21 08:00:46;;;;;;;16.42;14.00;;;;;;;18.01;83.04;101052.59;4954893;29;20524;-83
2023/05/21 08:03:15;;;;;;;16.23;13.77;;;;;;;18.33;80.93;101053.28;4949398;29;20047;-83
2023/05/21 08:06:02;;;;;;;21.20;13.75;;;;;;;18.64;79.49;101059.25;4949481;29;20043;-82
2023/05/21 08:08:29;;;;;;;19.77;13.30;;;;;;;18.77;78.46;101051.72;4944285;29;20093;-82
2023/05/21 08:10:56;;;;;;;17.25;13.75;;;;;;;18.67;79.38;101064.47;4950652;29;20047;-80
2023/05/21 08:13:23;;;;;;;16.33;13.95;;;;;;;18.83;79.17;101054.16;4957239;28;20049;-79
2023/05/21 08:15:51;;;;;;;18.92;13.65;;;;;;;18.81;78.12;101054.22;4949645;29;20043;-81
2023/05/21 08:18:18;;;;;;;15.07;13.18;;;;;;;18.82;78.16;101053.28;4950148;29;20133;-83
2023/05/21 08:20:47;;;;;;;15.43;13.48;;;;;;;18.77;78.31;101052.63;4936278;28;20498;-82
2023/05/21 08:23:16;;;;;;;17.13;14.18;;;;;;;18.73;78.50;101058.06;4942019;29;20051;-82
2023/05/21 08:25:42;;;;;;;20.17;14.10;;;;;;;19.04;77.34;101056.97;4958699;28;20145;-81
2023/05/21 08:28:09;;;;;;;19.27;13.90;;;;;;;19.45;75.78;101055.38;4935812;29;20134;-81
2023/05/21 08:30:35;;;;;;;14.45;12.43;;;;;;;19.63;75.20;101059.06;4947799;29;20070;-84
2023/05/21 08:33:02;;;;;;;17.58;13.98;;;;;;;19.87;74.17;101064.34;4957194;29;20072;-82
2023/05/21 08:35:28;;;;;;;17.10;13.65;;;;;;;20.04;73.04;101071.59;4949313;29;20071;-84
2023/05/21 08:37:57;;;;;;;15.85;12.82;;;;;;;20.01;73.62;101071.72;4948697;29;20051;-84
2023/05/21 08:40:23;;;;;;;16.45;14.40;;;;;;;20.11;72.86;101058.91;4946436;29;20521;-82
2023/05/21 08:42:51;;;;;;;21.98;14.63;;;;;;;20.40;72.59;101051.47;4942855;29;20046;-82
2023/05/21 08:45:22;;;;;;;18.83;14.63;;;;;;;20.62;71.33;101046.94;4943913;29;20049;-82
2023/05/21 08:47:56;;;;;;;16.73;14.40;;;;;;;20.63;71.29;101045.16;4946697;29;20126;-82
2023/05/21 08:50:26;;;;;;;16.40;14.40;;;;;;;21.13;70.46;101043.78;4930521;29;20438;-81
2023/05/21 08:52:54;;;;;;;19.55;13.80;;;;;;;21.51;69.82;101040.22;4947970;29;20039;-83
2023/05/21 08:55:22;;;;;;;16.67;13.15;;;;;;;21.83;68.30;101037.81;4957839;28;20043;-82
2023/05/21 08:57:49;;;;;;;16.90;14.80;;;;;;;21.75;68.29;101047.03;4944823;28;20099;-84
2023/05/21 09:00:16;;;;;;;16.60;14.15;;;;;;;21.79;67.88;101048.59;4945135;29;20047;-85
2023/05/21 09:02:45;;;;;;;16.60;14.88;;;;;;;21.94;66.24;101044.31;4923381;29;20043;-83
2023/05/21 09:05:13;;;;;;;16.58;14.85;;;;;;;21.60;67.29;101045.13;4949276;29;20042;-83
2023/05/21 09:07:47;;;;;;;18.35;14.80;;;;;;;21.59;67.58;101046.94;4942113;29;20045;-81
2023/05/21 09:10:14;;;;;;;15.75;14.18;;;;;;;21.65;68.03;101053.75;4948264;29;20387;-81
2023/05/21 09:12:41;;;;;;;17.35;14.65;;;;;;;21.61;67.73;101058.34;4944583;29;20067;-84
2023/05/21 09:15:09;;;;;;;16.38;14.65;;;;;;;21.59;68.38;101054.03;4941574;29;20043;-81
2023/05/21 09:17:35;;;;;;;19.58;15.98;;;;;;;21.92;67.11;101061.31;4940526;29;20056;-83
2023/05/21 09:20:11;;;;;;;15.75;13.73;;;;;;;22.16;65.81;101045.88;4935381;29;20051;-80
2023/05/21 09:22:41;;;;;;;16.92;14.98;;;;;;;22.20;65.72;101066.13;4945858;28;20036;-84
2023/05/21 09:25:13;;;;;;;21.50;15.10;;;;;;;22.08;66.25;101056.94;4944667;29;20078;-83
2023/05/21 09:27:40;;;;;;;15.65;14.00;;;;;;;22.21;66.20;101048.31;4946410;28;20043;-81
2023/05/21 09:30:13;;;;;;;17.15;15.30;;;;;;;22.30;65.27;101051.34;4947413;29;20126;-81
2023/05/21 09:32:40;;;;;;;16.42;13.95;;;;;;;22.42;65.83;101054.38;4951113;29;20047;-81
2023/05/21 09:35:15;;;;;;;18.80;14.65;;;;;;;22.68;64.57;101055.66;4934426;29;20486;-82
2023/05/21 09:37:45;;;;;;;16.80;15.10;;;;;;;22.90;63.91;101052.69;4935319;29;20486;-84
2023/05/21 09:40:22;;;;;;;16.27;14.65;;;;;;;22.95;62.29;101055.13;4943625;29;20043;-84
2023/05/21 09:42:56;;;;;;;15.95;14.27;;;;;;;22.64;64.13;101059.44;4940613;28;20047;-81
2023/05/21 09:45:27;;;;;;;17.08;15.30;;;;;;;22.48;64.72;101048.72;4943584;28;20098;-82
2023/05/21 09:47:55;;;;;;;16.58;14.85;;;;;;;22.60;64.69;101049.88;4941258;29;20467;-81
2023/05/21 09:50:26;;;;;;;16.33;14.43;;;;;;;22.77;63.39;101052.47;4948297;29;20047;-82
2023/05/21 09:52:54;;;;;;;16.60;14.85;;;;;;;22.73;64.00;101053.59;4947386;28;20557;-84
2023/05/21 09:55:26;;;;;;;18.27;16.08;;;;;;;23.08;62.94;101049.97;4945459;29;20043;-83
2023/05/21 09:57:53;;;;;;;18.47;15.30;;;;;;;23.38;61.50;101050.06;4946400;29;20459;-82
2023/05/21 10:00:23;;;;;;;16.30;14.60;;;;;;;23.78;61.10;101053.13;4950359;29;20058;-81
2023/05/21 10:02:55;;;;;;;15.63;14.13;;;;;;;24.94;56.81;101042.69;4949186;29;20039;-81
2023/05/21 10:05:28;;;;;;;15.45;13.95;;;;;;;25.08;55.09;101048.00;4931316;29;20051;-83
2023/05/21 10:08:01;;;;;;;17.38;14.90;;;;;;;25.16;53.41;101047.53;4943880;28;20071;-82
2023/05/21 10:10:30;;;;;;;15.50;13.93;;;;;;;25.89;51.03;101035.63;4931785;29;20040;-83
2023/05/21 10:13:05;;;;;;;15.65;14.18;;;;;;;26.30;48.87;101036.44;4943786;29;20052;-84
2023/05/21 10:15:38;;;;;;;16.73;14.88;;;;;;;26.45;48.05;101041.69;4937085;29;20058;-82
2023/05/21 10:18:06;;;;;;;16.48;14.77;;;;;;;26.95;46.82;101037.28;4928150;29;20459;-81
2023/05/21 10:20:35;;;;;;;17.80;13.55;;;;;;;27.25;44.98;101025.28;4932341;29;20483;-84
2023/05/21 10:23:02;;;;;;;16.48;14.80;;;;;;;27.59;44.00;101025.47;4939361;29;20052;-85
2023/05/21 10:25:29;;;;;;;14.75;13.23;;;;;;;27.73;44.86;101024.44;4939523;29;20043;-84
2023/05/21 10:27:56;;;;;;;14.25;12.85;;;;;;;28.82;42.73;101025.88;4945215;29;20040;-82
2023/05/21 10:30:24;;;;;;;13.60;12.30;;;;;;;29.50;41.11;101017.69;4939826;29;20127;-82
2023/05/21 10:32:51;;;;;;;14.00;12.38;;;;;;;30.38;38.94;101012.06;4940092;29;20368;-84
2023/05/21 10:35:18;;;;;;;15.35;13.25;;;;;;;30.77;36.98;101012.25;4943191;29;20039;-83
2023/05/21 10:37:45;;;;;;;15.30;13.70;;;;;;;30.34;38.49;101011.47;4931405;28;20043;-83
2023/05/21 10:40:13;;;;;;;14.35;13.02;;;;;;;30.38;38.63;101008.50;4944072;29;20049;-88
2023/05/21 10:43:02;;;;;;;13.88;12.57;;;;;;;30.74;37.52;101012.56;4930721;29;20048;-83
2023/05/21 10:46:13;;;;;;;13.02;11.85;;;;;;;31.57;34.89;101004.16;4940382;29;20043;-82
2023/05/21 10:49:00;;;;;;;14.48;13.15;;;;;;;31.95;34.38;101007.84;4954201;28;20495;-83
2023/05/21 10:51:38;;;;;;;13.75;12.48;;;;;;;32.00;35.41;100999.31;4940109;29;20515;-84
2023/05/21 10:54:41;;;;;;;12.93;11.73;;;;;;;32.49;33.62;100996.50;4926551;29;20059;-88
2023/05/21 10:57:40;;;;;;;13.77;12.43;;;;;;;32.54;33.51;100990.59;4957058;29;20069;-84
2023/05/21 11:00:11;;;;;;;14.20;12.82;;;;;;;32.18;34.76;100983.19;4945153;29;20043;-83
2023/05/21 11:02:37;;;;;;;13.30;12.07;;;;;;;32.35;34.22;100984.28;4930119;29;20047;-85
2023/05/21 11:05:04;;;;;;;13.70;12.50;;;;;;;33.03;33.23;100979.53;4958586;28;20111;-84
2023/05/21 11:07:57;;;;;;;14.98;12.07;;;;;;;32.90;31.72;100971.78;4938587;28;20527;-83
2023/05/21 11:10:43;;;;;;;13.07;11.88;;;;;;;33.01;32.23;100971.56;4929712;29;20481;-81
2023/05/21 11:13:18;;;;;;;14.13;12.38;;;;;;;33.13;31.59;100974.91;4950601;28;20135;-81
2023/05/21 11:15:57;;;;;;;12.77;11.32;;;;;;;33.45;31.38;100968.09;4947569;29;20050;-82
2023/05/21 11:18:36;;;;;;;12.73;11.40;;;;;;;33.91;30.75;100960.69;4956339;28;20065;-83
2023/05/21 11:21:09;;;;;;;13.55;12.38;;;;;;;34.68;30.13;100961.75;4940100;29;20053;-83